createdAt,value
2023-04-07T00:00:59.177Z,0.00
2023-04-07T00:01:11.315Z,0.00
2023-04-07T00:02:11.975Z,0.00
2023-04-07T00:03:12.643Z,0.00
2023-04-07T00:04:13.318Z,0.00
2023-04-07T00:05:13.674Z,0.00
2023-04-07T00:06:14.386Z,0.00
2023-04-07T00:07:15.053Z,0.00
2023-04-07T00:08:15.684Z,0.00
2023-04-07T00:09:16.298Z,0.00
2023-04-07T00:10:16.922Z,0.00
2023-04-07T00:11:17.592Z,0.00
2023-04-07T00:12:18.334Z,0.00
2023-04-07T00:12:26.975Z,0.00
2023-04-07T00:13:28.003Z,0.00
2023-04-07T00:14:28.201Z,0.00
2023-04-07T00:15:28.734Z,0.00
2023-04-07T00:16:29.318Z,0.00
2023-04-07T00:17:29.945Z,0.00
2023-04-07T00:18:30.646Z,0.00
2023-04-07T00:19:31.412Z,0.00
2023-04-07T00:20:31.977Z,0.00
2023-04-07T00:21:32.557Z,0.00
2023-04-07T00:22:33.214Z,0.00
2023-04-07T00:23:33.843Z,0.00
2023-04-07T00:23:42.455Z,0.00
2023-04-07T00:24:43.023Z,0.00
2023-04-07T00:25:43.664Z,0.00
2023-04-07T00:26:44.344Z,0.00
2023-04-07T00:27:45.108Z,0.00
2023-04-07T00:28:45.143Z,0.00
2023-04-07T00:29:45.693Z,0.00
2023-04-07T00:30:46.331Z,0.00
2023-04-07T00:31:48.080Z,0.00
2023-04-07T00:32:47.877Z,0.00
2023-04-07T00:33:48.522Z,0.00
2023-04-07T00:34:49.205Z,0.00
2023-04-07T00:35:49.888Z,0.00
2023-04-07T00:35:58.567Z,0.00
2023-04-07T00:36:59.244Z,0.00
2023-04-07T00:38:00.045Z,0.00
2023-04-07T00:39:00.725Z,0.00
2023-04-07T00:40:01.369Z,0.00
2023-04-07T00:41:05.139Z,0.00
2023-04-07T00:42:02.847Z,0.00
2023-04-07T00:43:03.762Z,0.00
2023-04-07T00:44:04.394Z,0.05
2023-04-07T00:45:04.997Z,0.00
2023-04-07T00:46:05.732Z,0.00
2023-04-07T00:46:14.374Z,0.00
2023-04-07T00:47:15.127Z,0.00
2023-04-07T00:48:15.794Z,0.00
2023-04-07T00:49:16.469Z,0.00
2023-04-07T00:50:17.024Z,0.00
2023-04-07T00:51:17.647Z,0.05
2023-04-07T00:52:18.775Z,0.05
2023-04-07T00:53:18.357Z,0.05
2023-04-07T00:54:19.061Z,0.05
2023-04-07T00:55:19.690Z,0.05
2023-04-07T00:56:20.370Z,0.05
2023-04-07T00:57:21.072Z,0.05
2023-04-07T00:57:29.763Z,0.05
2023-04-07T00:58:30.411Z,0.05
2023-04-07T00:59:31.205Z,0.05
2023-04-07T01:00:31.886Z,0.05
2023-04-07T01:01:32.640Z,0.05
2023-04-07T01:02:33.531Z,0.05
2023-04-07T01:03:34.643Z,0.05
2023-04-07T01:04:34.901Z,0.05
2023-04-07T01:05:35.508Z,0.05
2023-04-07T01:06:36.093Z,0.05
2023-04-07T01:07:36.780Z,0.05
2023-04-07T01:07:45.459Z,0.05
2023-04-07T01:08:45.485Z,0.05
2023-04-07T01:09:46.139Z,0.05
2023-04-07T01:10:46.802Z,0.05
2023-04-07T01:11:47.442Z,0.05
2023-04-07T01:12:48.234Z,0.05
2023-04-07T01:13:48.918Z,0.05
2023-04-07T01:14:49.597Z,0.05
2023-04-07T01:15:50.282Z,0.05
2023-04-07T01:16:52.487Z,0.05
2023-04-07T01:17:51.626Z,0.05
2023-04-07T01:18:00.341Z,0.05
2023-04-07T01:19:00.951Z,0.05
2023-04-07T01:20:01.605Z,0.05
2023-04-07T01:21:02.278Z,0.00
2023-04-07T01:22:02.871Z,0.00
2023-04-07T01:23:03.732Z,0.00
2023-04-07T01:24:04.510Z,0.00
2023-04-07T01:25:05.154Z,0.00
2023-04-07T01:26:05.919Z,0.00
2023-04-07T01:27:06.519Z,0.00
2023-04-07T01:28:07.220Z,0.00
2023-04-07T01:29:07.773Z,0.00
2023-04-07T01:29:16.417Z,0.00
2023-04-07T01:30:17.019Z,0.00
2023-04-07T01:31:18.028Z,0.00
2023-04-07T01:32:18.659Z,0.00
2023-04-07T01:33:19.306Z,0.00
2023-04-07T01:34:20.146Z,0.00
2023-04-07T01:35:21.025Z,0.00
2023-04-07T01:36:21.573Z,0.00
2023-04-07T01:37:22.209Z,0.00
2023-04-07T01:38:22.797Z,0.00
2023-04-07T01:39:23.390Z,0.00
2023-04-07T01:40:23.979Z,0.00
2023-04-07T01:40:32.702Z,0.00
2023-04-07T01:41:33.287Z,0.00
2023-04-07T01:42:35.178Z,0.00
2023-04-07T01:43:35.001Z,0.00
2023-04-07T01:44:35.676Z,0.05
2023-04-07T01:45:36.251Z,0.05
2023-04-07T01:46:37.185Z,0.05
2023-04-07T01:47:37.918Z,0.05
2023-04-07T01:48:38.522Z,0.05
2023-04-07T01:49:39.271Z,0.05
2023-04-07T01:50:39.958Z,0.05
2023-04-07T01:51:40.620Z,0.05
2023-04-07T01:51:49.275Z,0.05
2023-04-07T01:52:50.097Z,0.00
2023-04-07T01:53:50.749Z,0.00
2023-04-07T01:54:51.491Z,0.00
2023-04-07T01:55:52.067Z,0.00
2023-04-07T01:56:52.751Z,0.00
2023-04-07T01:57:53.402Z,0.00
2023-04-07T01:58:54.278Z,0.00
2023-04-07T01:59:54.864Z,0.00
2023-04-07T02:00:55.792Z,0.00
2023-04-07T02:01:56.369Z,0.00
2023-04-07T02:02:57.055Z,0.00
2023-04-07T02:03:05.792Z,0.00
2023-04-07T02:04:06.346Z,0.00
2023-04-07T02:05:07.003Z,0.00
2023-04-07T02:06:07.652Z,0.00
2023-04-07T02:07:08.331Z,0.00
2023-04-07T02:08:08.964Z,0.00
2023-04-07T02:09:09.692Z,0.00
2023-04-07T02:10:10.657Z,0.00
2023-04-07T02:11:11.256Z,0.00
2023-04-07T02:12:12.185Z,0.00
2023-04-07T02:13:13.097Z,0.00
2023-04-07T02:14:13.756Z,0.00
2023-04-07T02:14:22.412Z,0.00
2023-04-07T02:15:23.147Z,0.00
2023-04-07T02:16:23.847Z,0.00
2023-04-07T02:17:24.810Z,0.00
2023-04-07T02:18:25.330Z,0.00
2023-04-07T02:19:26.157Z,0.00
2023-04-07T02:20:26.832Z,0.00
2023-04-07T02:21:27.590Z,0.00
2023-04-07T02:22:28.190Z,0.00
2023-04-07T02:23:28.848Z,0.00
2023-04-07T02:24:29.573Z,0.00
2023-04-07T02:25:30.206Z,0.00
2023-04-07T02:26:31.002Z,0.00
2023-04-07T02:26:39.588Z,0.00
2023-04-07T02:27:40.251Z,0.00
2023-04-07T02:28:40.844Z,0.00
2023-04-07T02:29:41.649Z,0.00
2023-04-07T02:30:42.456Z,0.00
2023-04-07T02:31:43.346Z,0.00
2023-04-07T02:32:44.418Z,0.00
2023-04-07T02:33:44.902Z,0.00
2023-04-07T02:34:45.835Z,0.00
2023-04-07T02:35:46.766Z,0.00
2023-04-07T02:36:47.451Z,0.00
2023-04-07T02:36:59.191Z,0.00
2023-04-07T02:37:59.797Z,0.00
2023-04-07T02:39:00.608Z,0.00
2023-04-07T02:40:01.267Z,0.00
2023-04-07T02:41:02.931Z,0.00
2023-04-07T02:42:02.613Z,0.00
2023-04-07T02:43:03.331Z,0.00
2023-04-07T02:44:04.019Z,0.00
2023-04-07T02:45:04.749Z,0.00
2023-04-07T02:46:05.514Z,0.00
2023-04-07T02:47:06.068Z,0.00
2023-04-07T02:48:06.622Z,0.00
2023-04-07T02:48:15.272Z,0.00
2023-04-07T02:49:16.201Z,0.00
2023-04-07T02:50:16.845Z,0.00
2023-04-07T02:51:17.596Z,0.00
2023-04-07T02:52:18.555Z,0.00
2023-04-07T02:53:19.192Z,0.00
2023-04-07T02:54:51.151Z,0.00
2023-04-07T02:55:51.808Z,0.00
2023-04-07T02:56:52.406Z,0.00
2023-04-07T02:57:52.967Z,0.00
2023-04-07T02:58:53.545Z,0.00
2023-04-07T02:59:54.318Z,0.00
2023-04-07T03:00:55.063Z,0.00
2023-04-07T03:01:56.240Z,0.00
2023-04-07T03:02:56.800Z,0.00
2023-04-07T03:03:57.783Z,0.00
2023-04-07T03:04:57.816Z,0.00
2023-04-07T03:05:07.490Z,0.00
2023-04-07T03:06:08.477Z,0.00
2023-04-07T03:07:09.072Z,0.00
2023-04-07T03:08:11.553Z,0.00
2023-04-07T03:09:10.273Z,0.00
2023-04-07T03:10:11.005Z,0.00
2023-04-07T03:11:11.901Z,0.00
2023-04-07T03:12:11.955Z,0.00
2023-04-07T03:13:12.942Z,0.00
2023-04-07T03:14:13.587Z,0.00
2023-04-07T03:15:14.415Z,0.00
2023-04-07T03:16:15.286Z,0.00
2023-04-07T03:16:24.011Z,0.00
2023-04-07T03:17:24.713Z,0.00
2023-04-07T03:18:25.447Z,0.00
2023-04-07T03:19:26.050Z,0.00
2023-04-07T03:20:26.770Z,0.00
2023-04-07T03:21:27.424Z,0.00
2023-04-07T03:22:28.264Z,0.00
2023-04-07T03:23:28.896Z,0.00
2023-04-07T03:24:29.529Z,0.00
2023-04-07T03:25:30.341Z,0.00
2023-04-07T03:26:30.410Z,0.00
2023-04-07T03:26:39.097Z,0.00
2023-04-07T03:27:39.947Z,0.00
2023-04-07T03:28:40.790Z,0.00
2023-04-07T03:29:40.865Z,0.00
2023-04-07T03:30:41.871Z,0.00
2023-04-07T03:31:42.574Z,0.00
2023-04-07T03:32:43.497Z,0.00
2023-04-07T03:33:43.914Z,0.00
2023-04-07T03:34:44.752Z,0.00
2023-04-07T03:35:45.560Z,0.00
2023-04-07T03:36:46.366Z,0.00
2023-04-07T03:36:55.082Z,0.00
2023-04-07T03:37:55.258Z,0.00
2023-04-07T03:38:56.120Z,0.00
2023-04-07T03:39:56.947Z,0.00
2023-04-07T03:40:57.744Z,0.00
2023-04-07T03:41:58.450Z,0.00
2023-04-07T03:42:59.055Z,0.00
2023-04-07T03:43:59.919Z,0.00
2023-04-07T03:45:00.751Z,0.00
2023-04-07T03:46:01.555Z,0.00
2023-04-07T03:47:02.111Z,0.00
2023-04-07T03:48:02.986Z,0.00
2023-04-07T03:48:11.598Z,0.00
2023-04-07T03:49:12.532Z,0.00
2023-04-07T03:50:13.326Z,0.00
2023-04-07T03:51:14.258Z,0.00
2023-04-07T03:52:15.228Z,0.00
2023-04-07T03:53:16.073Z,0.00
2023-04-07T03:54:16.798Z,0.00
2023-04-07T03:55:17.602Z,0.00
2023-04-07T03:56:18.462Z,0.00
2023-04-07T03:57:19.417Z,0.00
2023-04-07T03:58:20.205Z,0.00
2023-04-07T03:59:21.078Z,0.00
2023-04-07T03:59:29.729Z,0.00
2023-04-07T04:00:30.547Z,0.00
2023-04-07T04:01:31.457Z,0.00
2023-04-07T04:02:32.469Z,0.00
2023-04-07T04:03:33.389Z,0.00
2023-04-07T04:04:34.192Z,0.00
2023-04-07T04:05:34.979Z,0.00
2023-04-07T04:06:35.832Z,0.05
2023-04-07T04:07:36.703Z,0.05
2023-04-07T04:08:37.426Z,0.05
2023-04-07T04:09:38.082Z,0.05
2023-04-07T04:09:46.752Z,0.05
2023-04-07T04:10:47.512Z,0.05
2023-04-07T04:11:48.233Z,0.05
2023-04-07T04:12:49.007Z,0.05
2023-04-07T04:13:49.925Z,0.05
2023-04-07T04:14:50.549Z,0.09
2023-04-07T04:15:51.411Z,0.14
2023-04-07T04:16:51.970Z,0.18
2023-04-07T04:17:52.709Z,0.18
2023-04-07T04:18:53.457Z,0.27
2023-04-07T04:19:54.144Z,0.31
2023-04-07T04:20:54.823Z,0.41
2023-04-07T04:21:55.509Z,0.45
2023-04-07T04:22:04.117Z,0.45
2023-04-07T04:23:05.064Z,0.58
2023-04-07T04:24:05.263Z,0.76
2023-04-07T04:25:05.932Z,0.90
2023-04-07T04:26:06.869Z,1.08
2023-04-07T04:27:07.760Z,1.22
2023-04-07T04:28:08.652Z,1.35
2023-04-07T04:29:09.402Z,1.49
2023-04-07T04:30:10.333Z,1.66
2023-04-07T04:31:11.229Z,2.12
2023-04-07T04:32:11.951Z,2.57
2023-04-07T04:33:12.830Z,3.15
2023-04-07T04:33:25.450Z,3.24
2023-04-07T04:34:25.777Z,3.78
2023-04-07T04:35:26.599Z,4.41
2023-04-07T04:36:27.598Z,5.18
2023-04-07T04:37:37.164Z,6.16
2023-04-07T04:38:28.862Z,6.80
2023-04-07T04:39:29.653Z,7.78
2023-04-07T04:40:30.350Z,8.10
2023-04-07T04:41:30.931Z,8.60
2023-04-07T04:42:31.782Z,9.31
2023-04-07T04:43:32.430Z,10.53
2023-04-07T04:44:32.917Z,11.16
2023-04-07T04:44:41.624Z,11.30
2023-04-07T04:45:42.542Z,11.97
2023-04-07T04:46:43.154Z,13.05
2023-04-07T04:47:43.858Z,14.31
2023-04-07T04:48:44.374Z,17.28
2023-04-07T04:49:45.278Z,19.80
2023-04-07T04:50:46.925Z,21.87
2023-04-07T04:51:46.499Z,22.86
2023-04-07T04:52:47.139Z,23.22
2023-04-07T04:53:47.860Z,23.94
2023-04-07T04:54:48.447Z,27.00
2023-04-07T04:55:49.144Z,31.14
2023-04-07T04:56:49.765Z,35.64
2023-04-07T04:56:58.404Z,36.36
2023-04-07T04:57:58.930Z,38.16
2023-04-07T04:58:59.696Z,45.54
2023-04-07T05:00:00.267Z,49.68
2023-04-07T05:01:00.995Z,48.24
2023-04-07T05:02:01.706Z,51.84
2023-04-07T05:03:02.480Z,60.48
2023-04-07T05:04:03.086Z,60.84
2023-04-07T05:05:03.817Z,75.24
2023-04-07T05:06:04.303Z,78.12
2023-04-07T05:07:05.013Z,78.48
2023-04-07T05:07:13.739Z,78.84
2023-04-07T05:08:14.390Z,86.04
2023-04-07T05:09:15.350Z,97.20
2023-04-07T05:10:16.016Z,108.00
2023-04-07T05:11:16.709Z,112.32
2023-04-07T05:12:17.275Z,116.64
2023-04-07T05:13:18.155Z,115.20
2023-04-07T05:14:18.952Z,117.36
2023-04-07T05:15:19.751Z,121.68
2023-04-07T05:16:20.392Z,128.16
2023-04-07T05:17:21.229Z,151.20
2023-04-07T05:18:21.863Z,170.64
2023-04-07T05:18:31.526Z,169.92
2023-04-07T05:19:32.330Z,174.24
2023-04-07T05:20:32.476Z,197.28
2023-04-07T05:21:32.554Z,223.20
2023-04-07T05:22:33.440Z,227.52
2023-04-07T05:23:34.400Z,216.00
2023-04-07T05:24:35.211Z,207.36
2023-04-07T05:25:35.398Z,226.08
2023-04-07T05:26:36.315Z,252.00
2023-04-07T05:27:37.112Z,272.16
2023-04-07T05:28:37.386Z,276.48
2023-04-07T05:28:46.040Z,277.92
2023-04-07T05:29:46.988Z,292.32
2023-04-07T05:30:47.687Z,305.28
2023-04-07T05:31:48.350Z,313.92
2023-04-07T05:32:49.003Z,332.64
2023-04-07T05:33:50.026Z,335.52
2023-04-07T05:34:50.286Z,345.60
2023-04-07T05:35:51.130Z,354.24
2023-04-07T05:36:51.793Z,358.56
2023-04-07T05:37:52.441Z,397.44
2023-04-07T05:38:53.168Z,423.36
2023-04-07T05:39:04.834Z,432.00
2023-04-07T05:40:05.734Z,486.72
2023-04-07T05:41:05.912Z,512.64
2023-04-07T05:42:45.401Z,607.68
2023-04-07T05:43:45.502Z,599.04
2023-04-07T05:44:45.585Z,636.48
2023-04-07T05:45:46.539Z,601.92
2023-04-07T05:46:46.708Z,624.96
2023-04-07T05:47:47.455Z,668.16
2023-04-07T05:48:48.208Z,725.76
2023-04-07T05:49:49.027Z,754.56
2023-04-07T05:50:49.870Z,789.12
2023-04-07T05:51:50.823Z,806.40
2023-04-07T05:52:51.476Z,840.96
2023-04-07T05:53:00.170Z,840.96
2023-04-07T05:54:00.678Z,881.28
2023-04-07T05:55:01.425Z,1152.00
2023-04-07T05:56:02.103Z,1157.76
2023-04-07T05:57:02.842Z,1215.36
2023-04-07T05:58:03.604Z,1175.04
2023-04-07T05:59:04.177Z,1307.52
2023-04-07T06:00:05.083Z,1336.32
2023-04-07T06:01:05.828Z,1301.76
2023-04-07T06:02:06.492Z,1324.80
2023-04-07T06:03:07.096Z,1434.24
2023-04-07T06:04:07.639Z,1486.08
2023-04-07T06:04:16.602Z,1474.56
2023-04-07T06:05:17.300Z,1440.00
2023-04-07T06:06:17.876Z,1365.12
2023-04-07T06:07:18.748Z,1434.24
2023-04-07T06:08:19.310Z,1405.44
2023-04-07T06:09:19.800Z,1382.40
2023-04-07T06:10:20.364Z,1324.80
2023-04-07T06:11:20.919Z,1336.32
2023-04-07T06:12:21.602Z,1319.04
2023-04-07T06:13:22.339Z,1192.32
2023-04-07T06:14:22.901Z,1382.40
2023-04-07T06:14:31.936Z,1422.72
2023-04-07T06:15:32.490Z,1635.84
2023-04-07T06:16:33.135Z,1601.28
2023-04-07T06:17:33.662Z,1416.96
2023-04-07T06:18:34.201Z,1330.56
2023-04-07T06:19:35.120Z,1319.04
2023-04-07T06:20:35.772Z,1152.00
2023-04-07T06:21:36.376Z,984.96
2023-04-07T06:22:36.999Z,1071.36
2023-04-07T06:23:37.577Z,1082.88
2023-04-07T06:24:38.060Z,1071.36
2023-04-07T06:25:38.629Z,1059.84
2023-04-07T06:25:47.305Z,1082.88
2023-04-07T06:26:48.226Z,1152.00
2023-04-07T06:27:48.844Z,1013.76
2023-04-07T06:28:49.726Z,990.72
2023-04-07T06:29:49.770Z,956.16
2023-04-07T06:30:50.395Z,887.04
2023-04-07T06:31:51.051Z,714.24
2023-04-07T06:32:51.805Z,1146.24
2023-04-07T06:33:52.661Z,1008.00
2023-04-07T06:34:53.238Z,682.56
2023-04-07T06:35:53.862Z,699.84
2023-04-07T06:36:02.515Z,708.48
2023-04-07T06:37:03.164Z,817.92
2023-04-07T06:38:04.052Z,892.80
2023-04-07T06:39:04.708Z,950.40
2023-04-07T06:40:05.497Z,881.28
2023-04-07T06:41:06.157Z,852.48
2023-04-07T06:42:06.711Z,938.88
2023-04-07T06:43:07.649Z,1186.56
2023-04-07T06:44:09.640Z,1434.24
2023-04-07T06:45:08.889Z,1739.52
2023-04-07T06:46:09.932Z,1797.12
2023-04-07T06:47:10.461Z,1843.20
2023-04-07T06:47:20.094Z,1843.20
2023-04-07T06:48:20.759Z,1900.80
2023-04-07T06:49:21.346Z,2027.52
2023-04-07T06:50:22.070Z,2476.80
2023-04-07T06:51:22.793Z,2522.88
2023-04-07T06:52:23.390Z,2534.40
2023-04-07T06:53:24.126Z,2603.52
2023-04-07T06:54:24.688Z,2545.92
2023-04-07T06:55:25.447Z,2557.44
2023-04-07T06:56:26.286Z,2718.72
2023-04-07T06:57:26.184Z,2995.20
2023-04-07T06:58:26.878Z,2937.60
2023-04-07T06:58:36.010Z,2914.56
2023-04-07T06:59:36.005Z,2799.36
2023-04-07T07:00:36.518Z,2833.92
2023-04-07T07:01:37.242Z,2707.20
2023-04-07T07:02:37.846Z,2638.08
2023-04-07T07:03:38.362Z,2384.64
2023-04-07T07:04:38.994Z,2430.72
2023-04-07T07:05:39.543Z,2396.16
2023-04-07T07:06:40.104Z,2384.64
2023-04-07T07:07:40.734Z,2419.20
2023-04-07T07:08:41.448Z,2338.56
2023-04-07T07:08:50.179Z,2315.52
2023-04-07T07:09:50.849Z,2223.36
2023-04-07T07:10:51.451Z,2108.16
2023-04-07T07:11:51.975Z,2073.60
2023-04-07T07:12:52.541Z,2039.04
2023-04-07T07:13:53.184Z,1946.88
2023-04-07T07:14:53.944Z,1716.48
2023-04-07T07:15:54.562Z,1704.96
2023-04-07T07:16:55.016Z,1497.60
2023-04-07T07:17:55.858Z,1612.80
2023-04-07T07:18:56.330Z,1589.76
2023-04-07T07:19:05.094Z,1566.72
2023-04-07T07:20:05.798Z,1486.08
2023-04-07T07:21:05.657Z,1532.16
2023-04-07T07:22:06.306Z,1566.72
2023-04-07T07:23:06.952Z,1601.28
2023-04-07T07:24:07.634Z,1670.40
2023-04-07T07:25:08.420Z,1762.56
2023-04-07T07:26:09.045Z,2016.00
2023-04-07T07:27:09.725Z,1981.44
2023-04-07T07:28:10.434Z,2142.72
2023-04-07T07:29:11.217Z,2396.16
2023-04-07T07:30:11.952Z,2407.68
2023-04-07T07:30:20.555Z,2407.68
2023-04-07T07:31:21.230Z,2430.72
2023-04-07T07:32:21.880Z,2488.32
2023-04-07T07:33:22.766Z,2465.28
2023-04-07T07:34:23.448Z,2407.68
2023-04-07T07:35:24.094Z,2269.44
2023-04-07T07:36:24.676Z,2188.80
2023-04-07T07:37:25.272Z,2246.40
2023-04-07T07:38:25.943Z,2304.00
2023-04-07T07:39:26.667Z,2269.44
2023-04-07T07:40:27.342Z,2292.48
2023-04-07T07:41:27.958Z,2361.60
2023-04-07T07:41:37.131Z,2361.60
2023-04-07T07:42:37.781Z,2280.96
2023-04-07T07:43:38.442Z,2177.28
2023-04-07T07:44:39.162Z,2165.76
2023-04-07T07:45:39.824Z,2419.20
2023-04-07T07:46:40.482Z,2373.12
2023-04-07T07:47:41.273Z,2476.80
2023-04-07T07:48:41.944Z,2488.32
2023-04-07T07:49:42.524Z,2442.24
2023-04-07T07:50:43.343Z,2638.08
2023-04-07T07:51:44.049Z,2903.04
2023-04-07T07:52:44.888Z,2856.96
2023-04-07T07:53:45.053Z,2810.88
2023-04-07T07:53:53.677Z,2822.40
2023-04-07T07:54:54.254Z,2764.80
2023-04-07T07:55:54.923Z,2499.84
2023-04-07T07:56:55.556Z,2511.36
2023-04-07T07:57:56.175Z,2649.60
2023-04-07T07:58:58.255Z,2626.56
2023-04-07T07:59:57.708Z,2638.08
2023-04-07T08:00:58.376Z,2580.48
2023-04-07T08:01:59.126Z,2615.04
2023-04-07T08:02:59.863Z,2361.60
2023-04-07T08:04:00.512Z,2131.20
2023-04-07T08:05:01.035Z,2062.08
2023-04-07T08:05:10.174Z,2050.56
2023-04-07T08:06:10.497Z,1889.28
2023-04-07T08:07:11.149Z,2096.64
2023-04-07T08:08:11.758Z,2327.04
2023-04-07T08:09:12.365Z,2292.48
2023-04-07T08:10:13.228Z,2119.68
2023-04-07T08:11:14.000Z,2039.04
2023-04-07T08:12:14.720Z,1900.80
2023-04-07T08:13:15.536Z,1923.84
2023-04-07T08:14:16.366Z,1946.88
2023-04-07T08:15:16.967Z,2027.52
2023-04-07T08:16:17.683Z,2073.60
2023-04-07T08:16:26.388Z,2073.60
2023-04-07T08:17:26.990Z,2119.68
2023-04-07T08:18:27.639Z,2085.12
2023-04-07T08:19:28.286Z,2096.64
2023-04-07T08:20:28.925Z,2234.88
2023-04-07T08:21:29.872Z,2442.24
2023-04-07T08:22:30.864Z,2580.48
2023-04-07T08:23:31.827Z,2799.36
2023-04-07T08:24:32.450Z,2741.76
2023-04-07T08:25:32.962Z,2315.52
2023-04-07T08:26:33.562Z,2511.36
2023-04-07T08:27:34.147Z,2580.48
2023-04-07T08:27:42.775Z,2580.48
2023-04-07T08:28:43.333Z,2868.48
2023-04-07T08:29:44.036Z,2753.28
2023-04-07T08:30:44.872Z,2868.48
2023-04-07T08:31:45.792Z,3340.80
2023-04-07T08:32:46.332Z,3548.16
2023-04-07T08:33:47.288Z,3824.64
2023-04-07T08:34:47.599Z,4055.04
2023-04-07T08:35:48.293Z,4377.60
2023-04-07T08:36:48.901Z,4492.80
2023-04-07T08:37:49.499Z,4492.80
2023-04-07T08:38:50.193Z,4976.64
2023-04-07T08:38:58.816Z,5022.72
2023-04-07T08:39:59.430Z,4769.28
2023-04-07T08:41:00.137Z,3594.24
2023-04-07T08:42:00.822Z,3640.32
2023-04-07T08:43:01.450Z,4792.32
2023-04-07T08:44:02.067Z,5667.84
2023-04-07T08:45:02.663Z,5575.68
2023-04-07T08:46:03.310Z,4907.52
2023-04-07T08:47:03.914Z,5322.24
2023-04-07T08:48:04.563Z,5460.48
2023-04-07T08:49:05.174Z,5760.00
2023-04-07T08:50:05.764Z,5760.00
2023-04-07T08:51:06.480Z,5345.28
2023-04-07T08:51:16.569Z,5483.52
2023-04-07T08:52:17.159Z,6266.88
2023-04-07T08:53:17.343Z,6266.88
2023-04-07T08:54:18.248Z,6359.04
2023-04-07T08:55:18.216Z,5552.64
2023-04-07T08:56:18.995Z,6220.80
2023-04-07T08:57:19.066Z,6405.12
2023-04-07T08:58:19.846Z,5990.40
2023-04-07T08:59:20.493Z,6036.48
2023-04-07T09:00:20.951Z,6451.20
2023-04-07T09:01:21.672Z,5667.84
2023-04-07T09:02:22.386Z,6128.64
2023-04-07T09:02:31.049Z,6082.56
2023-04-07T09:03:31.133Z,6174.72
2023-04-07T09:04:31.701Z,6865.92
2023-04-07T09:05:32.430Z,7464.96
2023-04-07T09:06:33.020Z,7833.60
2023-04-07T09:07:33.589Z,7511.04
2023-04-07T09:08:34.195Z,7971.84
2023-04-07T09:09:34.848Z,8294.40
2023-04-07T09:10:35.415Z,7372.80
2023-04-07T09:11:36.422Z,7557.12
2023-04-07T09:12:37.181Z,7418.88
2023-04-07T09:12:45.864Z,7603.20
2023-04-07T09:13:46.656Z,8064.00
2023-04-07T09:14:47.124Z,8570.88
2023-04-07T09:15:47.697Z,8248.32
2023-04-07T09:16:48.456Z,7188.48
2023-04-07T09:17:48.972Z,6082.56
2023-04-07T09:18:49.702Z,6543.36
2023-04-07T09:19:50.467Z,6405.12
2023-04-07T09:20:51.090Z,6681.60
2023-04-07T09:21:51.717Z,6773.76
2023-04-07T09:22:52.524Z,7142.40
2023-04-07T09:23:53.147Z,8893.44
2023-04-07T09:24:01.812Z,8939.52
2023-04-07T09:25:02.450Z,8248.32
2023-04-07T09:26:03.051Z,7557.12
2023-04-07T09:27:03.610Z,7418.88
2023-04-07T09:28:04.201Z,10598.40
2023-04-07T09:29:04.846Z,12257.28
2023-04-07T09:30:05.434Z,10828.80
2023-04-07T09:31:06.134Z,11243.52
2023-04-07T09:32:06.767Z,11105.28
2023-04-07T09:33:07.333Z,9815.04
2023-04-07T09:34:08.036Z,8847.36
2023-04-07T09:35:08.640Z,9907.20
2023-04-07T09:35:17.353Z,9999.36
2023-04-07T09:36:18.051Z,9630.72
2023-04-07T09:37:18.599Z,9262.08
2023-04-07T09:38:19.114Z,8202.24
2023-04-07T09:39:19.693Z,8847.36
2023-04-07T09:40:20.466Z,9538.56
2023-04-07T09:41:20.986Z,8110.08
2023-04-07T09:42:21.572Z,8340.48
2023-04-07T09:43:22.077Z,9722.88
2023-04-07T09:44:22.922Z,9815.04
2023-04-07T09:45:33.191Z,11013.12
2023-04-07T09:45:36.530Z,11197.44
2023-04-07T09:46:35.930Z,11427.84
2023-04-07T09:47:36.554Z,11566.08
2023-04-07T09:48:37.486Z,11566.08
2023-04-07T09:49:38.148Z,10275.84
2023-04-07T09:50:38.735Z,8709.12
2023-04-07T09:51:38.925Z,9953.28
2023-04-07T09:52:39.780Z,10874.88
2023-04-07T09:53:41.538Z,9492.48
2023-04-07T09:54:40.691Z,9216.00
2023-04-07T09:55:40.686Z,8616.96
2023-04-07T09:55:50.296Z,8616.96
2023-04-07T09:56:51.057Z,8524.80
2023-04-07T09:57:51.222Z,8248.32
2023-04-07T09:58:51.319Z,9123.84
2023-04-07T09:59:51.293Z,9676.80
2023-04-07T10:00:51.835Z,11658.24
2023-04-07T10:01:53.874Z,12072.96
2023-04-07T10:02:53.493Z,11566.08
2023-04-07T10:03:54.039Z,12625.92
2023-04-07T10:04:54.663Z,12810.24
2023-04-07T10:05:55.227Z,12349.44
2023-04-07T10:06:55.775Z,13178.88
2023-04-07T10:07:05.438Z,13271.04
2023-04-07T10:08:05.371Z,13916.16
2023-04-07T10:09:05.941Z,13824.00
2023-04-07T10:10:06.743Z,12994.56
2023-04-07T10:11:07.366Z,12349.44
2023-04-07T10:12:07.875Z,9676.80
2023-04-07T10:13:08.427Z,8110.08
2023-04-07T10:14:09.161Z,9676.80
2023-04-07T10:15:09.897Z,9722.88
2023-04-07T10:16:10.557Z,11980.80
2023-04-07T10:17:11.122Z,13086.72
2023-04-07T10:17:19.787Z,12994.56
2023-04-07T10:18:19.784Z,11335.68
2023-04-07T10:19:20.488Z,9907.20
2023-04-07T10:20:21.456Z,11151.36
2023-04-07T10:21:21.712Z,11980.80
2023-04-07T10:22:22.219Z,11335.68
2023-04-07T10:23:22.744Z,9999.36
2023-04-07T10:24:23.501Z,10321.92
2023-04-07T10:25:23.524Z,10229.76
2023-04-07T10:26:24.084Z,10552.32
2023-04-07T10:27:24.648Z,11243.52
2023-04-07T10:27:33.310Z,11289.60
2023-04-07T10:28:33.911Z,9676.80
2023-04-07T10:29:34.543Z,8663.04
2023-04-07T10:30:35.362Z,7004.16
2023-04-07T10:31:36.053Z,7741.44
2023-04-07T10:32:36.599Z,9262.08
2023-04-07T10:33:37.551Z,11151.36
2023-04-07T10:34:38.311Z,11105.28
2023-04-07T10:35:39.270Z,11197.44
2023-04-07T10:36:39.898Z,11566.08
2023-04-07T10:37:40.636Z,11704.32
2023-04-07T10:38:41.114Z,11980.80
2023-04-07T10:38:49.778Z,12072.96
2023-04-07T10:39:50.495Z,11796.48
2023-04-07T10:40:51.049Z,10920.96
2023-04-07T10:41:51.662Z,9630.72
2023-04-07T10:42:52.314Z,9630.72
2023-04-07T10:43:52.990Z,8432.64
2023-04-07T10:44:53.710Z,7280.64
2023-04-07T10:45:54.422Z,7464.96
2023-04-07T10:46:54.893Z,7971.84
2023-04-07T10:47:55.470Z,7649.28
2023-04-07T10:48:56.065Z,7372.80
2023-04-07T10:49:56.718Z,7603.20
2023-04-07T10:50:08.365Z,7695.36
2023-04-07T10:51:08.951Z,7695.36
2023-04-07T10:52:09.571Z,8156.16
2023-04-07T10:53:10.259Z,7925.76
2023-04-07T10:54:10.889Z,8064.00
2023-04-07T10:55:11.527Z,8801.28
2023-04-07T10:56:12.075Z,9815.04
2023-04-07T10:57:12.644Z,8616.96
2023-04-07T10:58:13.471Z,8893.44
2023-04-07T10:59:14.229Z,9354.24
2023-04-07T11:00:15.060Z,9584.64
2023-04-07T11:00:23.777Z,9584.64
2023-04-07T11:01:24.842Z,9907.20
2023-04-07T11:02:25.756Z,10414.08
2023-04-07T11:03:26.088Z,10506.24
2023-04-07T11:04:25.947Z,9953.28
2023-04-07T11:05:26.044Z,9676.80
2023-04-07T11:06:27.052Z,9999.36
2023-04-07T11:07:27.901Z,10275.84
2023-04-07T11:08:27.997Z,10321.92
2023-04-07T11:09:28.833Z,10506.24
2023-04-07T11:10:29.808Z,10874.88
2023-04-07T11:11:29.731Z,10183.68
2023-04-07T11:11:39.702Z,9953.28
2023-04-07T11:12:39.901Z,8939.52
2023-04-07T11:13:40.021Z,9216.00
2023-04-07T11:14:40.193Z,9907.20
2023-04-07T11:15:41.043Z,11059.20
2023-04-07T11:16:41.305Z,11980.80
2023-04-07T11:17:42.036Z,12165.12
2023-04-07T11:18:42.972Z,11750.40
2023-04-07T11:19:43.652Z,11289.60
2023-04-07T11:20:46.013Z,10045.44
2023-04-07T11:21:44.495Z,8847.36
2023-04-07T11:22:45.135Z,8939.52
2023-04-07T11:22:53.904Z,8985.60
2023-04-07T11:23:54.095Z,8847.36
2023-04-07T11:24:54.687Z,8386.56
2023-04-07T11:25:55.389Z,7418.88
2023-04-07T11:26:56.096Z,7234.56
2023-04-07T11:27:56.692Z,8202.24
2023-04-07T11:28:57.719Z,8663.04
2023-04-07T11:29:58.331Z,8893.44
2023-04-07T11:30:58.408Z,8985.60
2023-04-07T11:31:59.046Z,9584.64
2023-04-07T11:32:59.811Z,10368.00
2023-04-07T11:33:08.932Z,10368.00
2023-04-07T11:34:09.669Z,10552.32
2023-04-07T11:35:10.428Z,10460.16
2023-04-07T11:36:10.565Z,11105.28
2023-04-07T11:37:11.798Z,12349.44
2023-04-07T11:38:11.727Z,13363.20
2023-04-07T11:39:12.639Z,13547.52
2023-04-07T11:40:13.206Z,14745.60
2023-04-07T11:41:13.996Z,15759.36
2023-04-07T11:42:14.701Z,16128.00
2023-04-07T11:43:15.527Z,16312.32
2023-04-07T11:43:24.783Z,16404.48
2023-04-07T11:44:24.973Z,16220.16
2023-04-07T11:45:25.225Z,15943.68
2023-04-07T11:46:26.116Z,17141.76
2023-04-07T11:47:26.884Z,14284.80
2023-04-07T11:48:27.888Z,13178.88
2023-04-07T11:49:28.944Z,13731.84